createdAt,value
2023-05-10T06:56:02.638Z,94069.00
2023-05-10T06:57:04.207Z,94069.00
2023-05-10T06:58:11.186Z,94069.00
2023-05-10T06:59:02.848Z,94067.00
2023-05-10T07:00:02.808Z,94064.00
2023-05-10T07:01:02.928Z,94067.00
2023-05-10T07:02:02.893Z,94067.00
2023-05-10T07:03:02.925Z,94065.00
2023-05-10T07:04:02.838Z,94065.00
2023-05-10T07:05:03.567Z,94065.00
2023-05-10T07:06:02.812Z,94065.00
2023-05-10T07:07:02.830Z,94065.00
2023-05-10T07:08:02.900Z,94067.00
2023-05-10T07:09:02.876Z,94065.00
2023-05-10T07:10:02.924Z,94065.00
2023-05-10T07:11:03.093Z,94067.00
2023-05-10T07:12:02.963Z,94067.00
2023-05-10T07:13:02.986Z,94067.00
2023-05-10T07:14:02.973Z,94067.00
2023-05-10T07:15:02.993Z,94067.00
2023-05-10T07:16:03.054Z,94065.00
2023-05-10T07:17:03.074Z,94071.00
2023-05-10T07:18:03.140Z,94071.00
2023-05-10T07:19:03.117Z,94071.00
2023-05-10T07:20:03.092Z,94069.00
2023-05-10T07:21:03.166Z,94067.00
2023-05-10T07:22:03.212Z,94071.00
2023-05-10T07:23:03.239Z,94071.00
2023-05-10T07:24:03.254Z,94071.00
2023-05-10T07:25:03.251Z,94071.00
2023-05-10T07:26:03.297Z,94071.00
2023-05-10T07:27:03.433Z,94075.00
2023-05-10T07:28:03.356Z,94077.00
2023-05-10T07:29:03.571Z,94075.00
2023-05-10T07:30:03.381Z,94075.00
2023-05-10T07:31:03.452Z,94071.00
2023-05-10T07:32:03.537Z,94075.00
2023-05-10T07:33:03.351Z,94077.00
2023-05-10T07:34:03.364Z,94077.00
2023-05-10T07:35:03.431Z,94077.00
2023-05-10T07:36:03.553Z,94075.00
2023-05-10T07:37:03.563Z,94077.00
2023-05-10T07:38:03.637Z,94075.00
2023-05-10T07:39:03.760Z,94077.00
2023-05-10T07:40:03.905Z,94075.00
2023-05-10T07:41:03.789Z,94073.00
2023-05-10T07:42:03.813Z,94073.00
2023-05-10T07:43:03.859Z,94077.00
2023-05-10T07:44:03.897Z,94077.00
2023-05-10T07:45:03.914Z,94079.00
2023-05-10T07:46:04.014Z,94077.00
2023-05-10T07:47:03.954Z,94075.00
2023-05-10T07:48:04.055Z,94077.00
2023-05-10T07:49:04.008Z,94079.00
2023-05-10T07:50:04.422Z,94083.00
2023-05-10T07:51:04.021Z,94083.00
2023-05-10T07:52:03.945Z,94085.00
2023-05-10T07:53:03.965Z,94083.00
2023-05-10T07:54:03.982Z,94085.00
2023-05-10T07:55:04.414Z,94085.00
2023-05-10T07:56:04.040Z,94081.00
2023-05-10T07:57:04.034Z,94087.00
2023-05-10T07:58:04.084Z,94087.00
2023-05-10T07:59:04.135Z,94087.00
2023-05-10T08:00:04.414Z,94085.00
2023-05-10T08:01:04.208Z,94085.00
2023-05-10T08:02:04.285Z,94083.00
2023-05-10T08:03:04.352Z,94085.00
2023-05-10T08:04:04.425Z,94083.00
2023-05-10T08:05:04.438Z,94085.00
2023-05-10T08:06:04.528Z,94087.00
2023-05-10T08:07:04.590Z,94091.00
2023-05-10T08:08:04.666Z,94089.00
2023-05-10T08:09:04.680Z,94089.00
2023-05-10T08:10:04.742Z,94089.00
2023-05-10T08:11:04.789Z,94091.00
2023-05-10T08:12:04.830Z,94093.00
2023-05-10T08:13:04.873Z,94089.00
2023-05-10T08:14:04.918Z,94093.00
2023-05-10T08:15:05.428Z,94093.00
2023-05-10T08:16:05.115Z,94095.00
2023-05-10T08:17:05.095Z,94093.00
2023-05-10T08:18:05.182Z,94093.00
2023-05-10T08:19:05.275Z,94093.00
2023-05-10T08:20:05.435Z,94093.00
2023-05-10T08:21:05.306Z,94091.00
2023-05-10T08:22:05.359Z,94091.00
2023-05-10T08:23:05.363Z,94089.00
2023-05-10T08:24:05.358Z,94089.00
2023-05-10T08:25:05.438Z,94089.00
2023-05-10T08:26:05.448Z,94091.00
2023-05-10T08:27:05.505Z,94087.00
2023-05-10T08:28:05.503Z,94091.00
2023-05-10T08:29:05.619Z,94093.00
2023-05-10T08:30:05.597Z,94089.00
2023-05-10T08:31:05.691Z,94091.00
2023-05-10T08:32:05.654Z,94089.00
2023-05-10T08:33:05.723Z,94089.00
2023-05-10T08:34:05.708Z,94091.00
2023-05-10T08:35:05.745Z,94091.00
2023-05-10T08:36:05.825Z,94093.00
2023-05-10T08:37:05.771Z,94093.00
2023-05-10T08:38:05.748Z,94097.00
2023-05-10T08:39:07.740Z,94097.00
2023-05-10T08:40:06.926Z,94101.00
2023-05-10T08:41:05.777Z,94101.00
2023-05-10T08:42:05.729Z,94101.00
2023-05-10T08:43:05.874Z,94103.00
2023-05-10T08:44:05.760Z,94103.00
2023-05-10T08:45:05.914Z,94103.00
2023-05-10T08:46:05.772Z,94105.00
2023-05-10T08:47:05.842Z,94101.00
2023-05-10T08:48:05.742Z,94105.00
2023-05-10T08:49:05.735Z,94103.00
2023-05-10T08:50:05.794Z,94105.00
2023-05-10T08:51:05.860Z,94107.00
2023-05-10T08:52:05.842Z,94105.00
2023-05-10T08:53:05.916Z,94103.00
2023-05-10T08:54:05.939Z,94101.00
2023-05-10T08:55:07.838Z,94105.00
2023-05-10T08:56:05.991Z,94101.00
2023-05-10T08:57:06.072Z,94101.00
2023-05-10T08:58:06.119Z,94103.00
2023-05-10T08:59:06.073Z,94103.00
2023-05-10T09:00:06.094Z,94103.00
2023-05-10T09:01:06.172Z,94103.00
2023-05-10T09:02:06.205Z,94103.00
2023-05-10T09:03:06.296Z,94103.00
2023-05-10T09:04:06.449Z,94105.00
2023-05-10T09:05:06.455Z,94107.00
2023-05-10T09:06:06.445Z,94105.00
2023-05-10T09:07:06.432Z,94105.00
2023-05-10T09:08:06.516Z,94107.00
2023-05-10T09:09:06.596Z,94107.00
2023-05-10T09:10:06.968Z,94107.00
2023-05-10T09:11:06.723Z,94107.00
2023-05-10T09:12:06.739Z,94105.00
2023-05-10T09:13:06.819Z,94105.00
2023-05-10T09:14:06.874Z,94105.00
2023-05-10T09:15:06.974Z,94103.00
2023-05-10T09:16:13.903Z,94105.00
2023-05-10T09:17:08.034Z,94107.00
2023-05-10T09:18:06.973Z,94111.00
2023-05-10T09:19:07.079Z,94109.00
2023-05-10T09:20:06.985Z,94109.00
2023-05-10T09:21:06.983Z,94109.00
2023-05-10T09:22:06.926Z,94109.00
2023-05-10T09:23:06.952Z,94109.00
2023-05-10T09:24:06.966Z,94109.00
2023-05-10T09:25:06.928Z,94109.00
2023-05-10T09:26:07.463Z,94103.00
2023-05-10T09:27:06.931Z,94103.00
2023-05-10T09:28:06.969Z,94103.00
2023-05-10T09:29:06.972Z,94111.00
2023-05-10T09:30:07.469Z,94109.00
2023-05-10T09:31:07.460Z,94116.00
2023-05-10T09:32:07.104Z,94116.00
2023-05-10T09:33:07.129Z,94116.00
2023-05-10T09:34:07.110Z,94118.00
2023-05-10T09:35:07.127Z,94118.00
2023-05-10T09:36:07.490Z,94122.00
2023-05-10T09:37:07.202Z,94120.00
2023-05-10T09:38:07.256Z,94122.00
2023-05-10T09:39:07.249Z,94120.00
2023-05-10T09:40:07.276Z,94122.00
2023-05-10T09:41:07.333Z,94124.00
2023-05-10T09:42:07.375Z,94126.00
2023-05-10T09:43:07.393Z,94124.00
2023-05-10T09:44:07.438Z,94124.00
2023-05-10T09:45:07.489Z,94122.00
2023-05-10T09:46:07.983Z,94124.00
2023-05-10T09:47:07.576Z,94120.00
2023-05-10T09:48:07.818Z,94124.00
2023-05-10T09:49:07.650Z,94122.00
2023-05-10T09:50:07.671Z,94124.00
2023-05-10T09:51:07.735Z,94126.00
2023-05-10T09:52:07.773Z,94126.00
2023-05-10T09:53:07.826Z,94126.00
2023-05-10T09:54:07.855Z,94126.00
2023-05-10T09:55:07.921Z,94134.00
2023-05-10T09:56:07.954Z,94134.00
2023-05-10T09:57:08.004Z,94126.00
2023-05-10T09:58:08.091Z,94136.00
2023-05-10T09:59:08.081Z,94124.00
2023-05-10T10:00:08.159Z,94126.00
2023-05-10T10:01:08.269Z,94126.00
2023-05-10T10:02:08.270Z,94134.00
2023-05-10T10:03:08.381Z,94124.00
2023-05-10T10:04:08.410Z,94124.00
2023-05-10T10:05:08.509Z,94126.00
2023-05-10T10:06:18.765Z,94126.00
2023-05-10T10:07:09.503Z,94122.00
2023-05-10T10:08:08.526Z,94122.00
2023-05-10T10:09:08.521Z,94120.00
2023-05-10T10:10:08.473Z,94122.00
2023-05-10T10:11:08.472Z,94122.00
2023-05-10T10:12:08.438Z,94120.00
2023-05-10T10:13:08.418Z,94122.00
2023-05-10T10:14:08.409Z,94122.00
2023-05-10T10:15:08.484Z,94124.00
2023-05-10T10:16:09.482Z,94124.00
2023-05-10T10:17:09.110Z,94126.00
2023-05-10T10:18:08.834Z,94124.00
2023-05-10T10:19:08.726Z,94126.00
2023-05-10T10:20:11.151Z,94126.00
2023-05-10T10:21:09.033Z,94122.00
2023-05-10T10:22:08.780Z,94124.00
2023-05-10T10:23:08.740Z,94126.00
2023-05-10T10:24:08.772Z,94126.00
2023-05-10T10:25:08.742Z,94124.00
2023-05-10T10:26:09.471Z,94134.00
2023-05-10T10:27:08.810Z,94126.00
2023-05-10T10:28:08.720Z,94124.00
2023-05-10T10:29:08.856Z,94122.00
2023-05-10T10:30:08.745Z,94136.00
2023-05-10T10:31:08.768Z,94136.00
2023-05-10T10:32:08.668Z,94136.00
2023-05-10T10:33:16.872Z,94134.00
2023-05-10T10:34:09.737Z,94134.00
2023-05-10T10:35:08.661Z,94134.00
2023-05-10T10:36:09.017Z,94136.00
2023-05-10T10:37:08.723Z,94134.00
2023-05-10T10:38:08.675Z,94138.00
2023-05-10T10:39:08.648Z,94136.00
2023-05-10T10:40:08.668Z,94126.00
2023-05-10T10:41:08.633Z,94134.00
2023-05-10T10:42:08.598Z,94136.00
2023-05-10T10:43:08.614Z,94136.00
2023-05-10T10:44:08.608Z,94136.00
2023-05-10T10:45:08.627Z,94134.00
2023-05-10T10:46:08.576Z,94136.00
2023-05-10T10:47:08.626Z,94134.00
2023-05-10T10:48:08.645Z,94136.00
2023-05-10T10:49:08.660Z,94136.00
2023-05-10T10:50:08.703Z,94138.00
2023-05-10T10:51:10.128Z,94138.00
2023-05-10T10:52:08.697Z,94140.00
2023-05-10T10:53:08.672Z,94140.00
2023-05-10T10:54:08.652Z,94138.00
2023-05-10T10:55:08.649Z,94138.00
2023-05-10T10:56:08.656Z,94136.00
2023-05-10T10:57:08.635Z,94140.00
2023-05-10T10:58:08.614Z,94140.00
2023-05-10T10:59:08.613Z,94140.00
2023-05-10T11:00:08.625Z,94140.00
2023-05-10T11:01:08.657Z,94140.00
2023-05-10T11:02:08.615Z,94142.00
2023-05-10T11:03:08.632Z,94142.00
2023-05-10T11:04:08.656Z,94140.00
2023-05-10T11:05:08.572Z,94146.00
2023-05-10T11:06:08.602Z,94142.00
2023-05-10T11:07:08.548Z,94144.00
2023-05-10T11:08:08.554Z,94144.00
2023-05-10T11:09:08.554Z,94142.00
2023-05-10T11:10:08.605Z,94144.00
2023-05-10T11:11:08.714Z,94140.00
2023-05-10T11:12:08.544Z,94142.00
2023-05-10T11:13:08.533Z,94138.00
2023-05-10T11:14:08.539Z,94136.00
2023-05-10T11:15:08.495Z,94134.00
2023-05-10T11:16:09.032Z,94136.00
2023-05-10T11:17:08.627Z,94134.00
2023-05-10T11:18:08.592Z,94126.00
2023-05-10T11:19:08.603Z,94134.00
2023-05-10T11:20:08.482Z,94134.00
2023-05-10T11:21:08.457Z,94126.00
2023-05-10T11:22:08.575Z,94134.00
2023-05-10T11:23:08.438Z,94134.00
2023-05-10T11:24:08.442Z,94134.00
2023-05-10T11:25:08.409Z,94136.00
2023-05-10T11:26:08.417Z,94124.00
2023-05-10T11:27:08.443Z,94126.00
2023-05-10T11:28:08.415Z,94124.00
2023-05-10T11:29:08.389Z,94126.00
2023-05-10T11:30:08.379Z,94126.00
2023-05-10T11:31:08.406Z,94124.00
2023-05-10T11:32:08.354Z,94124.00
2023-05-10T11:33:08.428Z,94134.00
2023-05-10T11:34:08.430Z,94134.00
2023-05-10T11:35:08.360Z,94136.00
2023-05-10T11:36:08.349Z,94136.00
2023-05-10T11:37:08.328Z,94140.00
2023-05-10T11:38:08.318Z,94136.00
2023-05-10T11:39:08.359Z,94140.00
2023-05-10T11:40:08.312Z,94134.00
2023-05-10T11:41:08.404Z,94134.00
2023-05-10T11:42:08.306Z,94134.00
2023-05-10T11:43:08.309Z,94126.00
2023-05-10T11:44:08.292Z,94136.00
2023-05-10T11:45:08.275Z,94136.00
2023-05-10T11:46:08.314Z,94138.00
2023-05-10T11:47:08.327Z,94134.00
2023-05-10T11:48:08.307Z,94138.00
2023-05-10T11:49:08.250Z,94138.00
2023-05-10T11:50:08.248Z,94138.00
2023-05-10T11:51:08.499Z,94136.00
2023-05-10T11:52:08.246Z,94136.00
2023-05-10T11:53:08.265Z,94136.00
2023-05-10T11:54:08.231Z,94136.00
2023-05-10T11:55:08.234Z,94138.00
2023-05-10T11:56:08.192Z,94140.00
2023-05-10T11:57:08.195Z,94140.00
2023-05-10T11:58:08.221Z,94138.00
2023-05-10T11:59:08.173Z,94138.00
2023-05-10T12:00:08.184Z,94136.00
2023-05-10T12:01:08.275Z,94138.00
2023-05-10T12:02:08.212Z,94140.00
2023-05-10T12:03:08.227Z,94140.00
2023-05-10T12:04:08.384Z,94140.00
2023-05-10T12:05:08.242Z,94140.00
2023-05-10T12:06:08.458Z,94138.00
2023-05-10T12:07:08.116Z,94138.00
2023-05-10T12:08:08.121Z,94144.00
2023-05-10T12:09:08.165Z,94142.00
2023-05-10T12:10:08.130Z,94140.00
2023-05-10T12:11:08.462Z,94144.00
2023-05-10T12:12:08.944Z,94142.00
2023-05-10T12:13:08.068Z,94144.00
2023-05-10T12:14:08.967Z,94144.00
2023-05-10T12:15:08.067Z,94140.00
2023-05-10T12:16:08.512Z,94142.00
2023-05-10T12:17:08.027Z,94148.00
2023-05-10T12:18:08.062Z,94146.00
2023-05-10T12:19:08.131Z,94144.00
2023-05-10T12:20:08.034Z,94146.00
2023-05-10T12:21:08.077Z,94148.00
2023-05-10T12:22:08.151Z,94148.00
2023-05-10T12:23:08.213Z,94150.00
2023-05-10T12:24:08.290Z,94156.00
2023-05-10T12:25:08.317Z,94152.00
2023-05-10T12:26:08.382Z,94154.00
2023-05-10T12:27:08.424Z,94152.00
2023-05-10T12:28:08.499Z,94156.00
2023-05-10T12:29:08.560Z,94156.00
2023-05-10T12:30:08.610Z,94156.00
2023-05-10T12:31:08.996Z,94154.00
2023-05-10T12:32:08.750Z,94156.00
2023-05-10T12:33:08.814Z,94157.00
2023-05-10T12:34:08.766Z,94157.00
2023-05-10T12:35:08.806Z,94161.00
2023-05-10T12:36:08.859Z,94163.00
2023-05-10T12:37:08.940Z,94163.00
2023-05-10T12:38:08.961Z,94165.00
2023-05-10T12:39:08.996Z,94159.00
2023-05-10T12:40:09.002Z,94161.00
2023-05-10T12:41:09.102Z,94159.00
2023-05-10T12:42:09.081Z,94161.00
2023-05-10T12:43:09.107Z,94161.00
2023-05-10T12:44:09.204Z,94165.00
2023-05-10T12:45:09.257Z,94163.00
2023-05-10T12:46:09.406Z,94161.00
2023-05-10T12:47:09.292Z,94163.00
2023-05-10T12:48:09.394Z,94165.00
2023-05-10T12:49:09.920Z,94165.00
2023-05-10T12:50:09.393Z,94167.00
2023-05-10T12:51:09.428Z,94165.00
2023-05-10T12:52:09.439Z,94163.00
2023-05-10T12:53:09.500Z,94157.00
2023-05-10T12:54:09.517Z,94159.00
2023-05-10T12:55:09.582Z,94159.00
2023-05-10T12:56:09.601Z,94159.00
2023-05-10T12:57:09.678Z,94163.00
2023-05-10T12:58:09.915Z,94163.00
2023-05-10T12:59:09.720Z,94159.00
2023-05-10T13:00:09.709Z,94161.00
2023-05-10T13:01:10.070Z,94161.00
2023-05-10T13:02:09.779Z,94161.00
2023-05-10T13:03:09.991Z,94165.00
2023-05-10T13:04:09.867Z,94167.00
2023-05-10T13:05:09.980Z,94161.00
2023-05-10T13:06:09.893Z,94163.00
2023-05-10T13:07:09.979Z,94165.00
2023-05-10T13:08:09.970Z,94165.00
2023-05-10T13:09:10.032Z,94163.00
2023-05-10T13:10:10.066Z,94169.00
2023-05-10T13:11:10.083Z,94169.00
2023-05-10T13:12:10.342Z,94163.00
2023-05-10T13:13:10.107Z,94165.00
2023-05-10T13:14:10.145Z,94163.00
2023-05-10T13:15:10.174Z,94161.00
2023-05-10T13:16:10.189Z,94161.00
2023-05-10T13:17:10.614Z,94167.00
2023-05-10T13:18:10.312Z,94165.00
2023-05-10T13:19:10.474Z,94165.00
2023-05-10T13:20:10.457Z,94161.00
2023-05-10T13:21:10.399Z,94159.00
2023-05-10T13:22:10.405Z,94157.00
2023-05-10T13:23:10.421Z,94157.00
2023-05-10T13:24:10.444Z,94161.00
2023-05-10T13:25:10.521Z,94159.00
2023-05-10T13:26:10.545Z,94157.00
2023-05-10T13:27:10.568Z,94156.00
2023-05-10T13:28:10.594Z,94154.00
2023-05-10T13:29:10.688Z,94154.00
2023-05-10T13:30:10.728Z,94154.00
2023-05-10T13:31:10.748Z,94152.00
2023-05-10T13:32:10.786Z,94154.00
2023-05-10T13:33:10.787Z,94154.00
2023-05-10T13:34:10.813Z,94152.00
2023-05-10T13:35:10.866Z,94161.00
2023-05-10T13:36:10.868Z,94159.00
2023-05-10T13:37:10.911Z,94161.00
2023-05-10T13:38:10.981Z,94156.00
2023-05-10T13:39:10.984Z,94163.00
2023-05-10T13:40:11.010Z,94161.00
2023-05-10T13:41:11.049Z,94157.00
2023-05-10T13:42:11.073Z,94159.00
2023-05-10T13:43:11.125Z,94165.00
2023-05-10T13:44:11.129Z,94165.00
2023-05-10T13:45:11.142Z,94165.00
2023-05-10T13:46:11.221Z,94165.00
2023-05-10T13:47:11.201Z,94163.00
2023-05-10T13:48:11.265Z,94165.00
2023-05-10T13:49:11.274Z,94159.00
2023-05-10T13:50:11.523Z,94157.00
2023-05-10T13:51:11.358Z,94163.00
2023-05-10T13:52:11.365Z,94163.00
2023-05-10T13:53:11.387Z,94159.00
2023-05-10T13:54:13.420Z,94163.00
2023-05-10T13:55:11.503Z,94163.00
2023-05-10T13:56:11.507Z,94165.00
2023-05-10T13:57:11.542Z,94154.00
2023-05-10T13:58:11.672Z,94165.00
2023-05-10T13:59:11.640Z,94163.00
2023-05-10T14:00:12.012Z,94159.00
2023-05-10T14:01:11.665Z,94163.00
2023-05-10T14:02:12.096Z,94161.00
2023-05-10T14:03:11.933Z,94159.00
2023-05-10T14:04:12.515Z,94161.00
2023-05-10T14:05:12.411Z,94161.00
2023-05-10T14:06:11.849Z,94165.00
2023-05-10T14:07:11.975Z,94163.00
2023-05-10T14:08:11.928Z,94165.00
2023-05-10T14:09:11.976Z,94163.00
2023-05-10T14:10:11.992Z,94165.00
2023-05-10T14:11:12.031Z,94163.00
2023-05-10T14:12:12.079Z,94163.00
2023-05-10T14:13:12.098Z,94163.00
2023-05-10T14:14:12.120Z,94159.00
2023-05-10T14:15:12.182Z,94161.00
2023-05-10T14:16:12.225Z,94163.00
2023-05-10T14:17:12.648Z,94163.00
2023-05-10T14:18:12.295Z,94159.00
2023-05-10T14:19:12.298Z,94163.00
2023-05-10T14:20:12.343Z,94161.00
2023-05-10T14:21:12.379Z,94163.00
2023-05-10T14:22:12.398Z,94161.00
2023-05-10T14:23:12.523Z,94159.00
2023-05-10T14:24:12.501Z,94159.00
2023-05-10T14:25:12.566Z,94161.00
2023-05-10T14:26:12.542Z,94159.00
2023-05-10T14:27:12.603Z,94165.00
2023-05-10T14:28:12.655Z,94165.00
2023-05-10T14:29:12.841Z,94163.00
2023-05-10T14:30:12.716Z,94163.00
2023-05-10T14:31:12.754Z,94157.00
2023-05-10T14:32:12.880Z,94157.00
2023-05-10T14:33:12.856Z,94165.00
2023-05-10T14:34:12.887Z,94159.00
2023-05-10T14:35:13.649Z,94159.00
2023-05-10T14:36:13.003Z,94159.00
2023-05-10T14:37:13.007Z,94159.00
2023-05-10T14:38:13.128Z,94161.00
2023-05-10T14:39:13.111Z,94163.00
2023-05-10T14:40:13.140Z,94163.00
2023-05-10T14:41:13.187Z,94163.00
2023-05-10T14:42:13.265Z,94159.00
2023-05-10T14:43:13.307Z,94169.00
2023-05-10T14:44:13.343Z,94161.00
2023-05-10T14:45:13.385Z,94159.00
2023-05-10T14:46:13.467Z,94159.00
2023-05-10T14:47:13.486Z,94161.00
2023-05-10T14:48:13.532Z,94161.00
2023-05-10T14:49:13.591Z,94161.00
2023-05-10T14:50:21.500Z,94161.00
2023-05-10T14:51:14.624Z,94171.00
2023-05-10T14:52:13.720Z,94163.00
2023-05-10T14:53:13.604Z,94163.00
2023-05-10T14:54:13.599Z,94163.00
2023-05-10T14:55:13.599Z,94167.00
2023-05-10T14:56:13.609Z,94171.00
2023-05-10T14:57:13.593Z,94167.00
2023-05-10T14:58:13.561Z,94167.00
2023-05-10T14:59:13.594Z,94167.00
2023-05-10T15:00:13.564Z,94171.00
2023-05-10T15:01:13.632Z,94165.00
2023-05-10T15:02:13.703Z,94167.00
2023-05-10T15:03:13.754Z,94169.00
2023-05-10T15:04:13.756Z,94171.00
2023-05-10T15:05:13.872Z,94171.00
2023-05-10T15:06:13.818Z,94173.00
2023-05-10T15:07:13.882Z,94175.00
2023-05-10T15:08:13.954Z,94173.00
2023-05-10T15:09:14.023Z,94175.00
2023-05-10T15:10:14.045Z,94179.00
2023-05-10T15:11:14.133Z,94175.00
2023-05-10T15:12:14.163Z,94175.00
2023-05-10T15:13:14.216Z,94177.00
2023-05-10T15:14:14.286Z,94177.00
2023-05-10T15:15:14.423Z,94179.00
2023-05-10T15:16:14.430Z,94181.00
2023-05-10T15:17:14.472Z,94181.00
2023-05-10T15:18:14.551Z,94181.00
2023-05-10T15:19:14.564Z,94181.00
2023-05-10T15:20:14.654Z,94185.00
2023-05-10T15:21:14.782Z,94183.00
2023-05-10T15:22:14.797Z,94183.00
2023-05-10T15:23:14.878Z,94183.00
2023-05-10T15:24:14.939Z,94185.00
2023-05-10T15:25:15.262Z,94185.00
2023-05-10T15:26:15.017Z,94187.00
2023-05-10T15:27:15.096Z,94187.00
2023-05-10T15:28:15.127Z,94187.00
2023-05-10T15:29:15.293Z,94187.00
2023-05-10T15:30:15.290Z,94187.00
2023-05-10T15:31:15.355Z,94189.00
2023-05-10T15:32:15.445Z,94191.00
2023-05-10T15:33:15.433Z,94193.00
2023-05-10T15:34:15.490Z,94191.00
2023-05-10T15:35:15.678Z,94191.00
2023-05-10T15:36:15.624Z,94193.00
2023-05-10T15:37:15.682Z,94195.00
2023-05-10T15:38:15.714Z,94195.00
2023-05-10T15:39:15.823Z,94195.00
2023-05-10T15:40:15.829Z,94199.00
2023-05-10T15:41:15.898Z,94197.00
2023-05-10T15:42:15.968Z,94197.00
2023-05-10T15:43:16.030Z,94199.00
2023-05-10T15:44:16.073Z,94199.00
2023-05-10T15:45:16.500Z,94203.00
2023-05-10T15:46:16.310Z,94203.00
2023-05-10T15:47:16.281Z,94207.00
2023-05-10T15:48:16.338Z,94203.00
2023-05-10T15:49:16.410Z,94205.00
2023-05-10T15:50:16.502Z,94209.00
2023-05-10T15:51:16.557Z,94209.00
2023-05-10T15:52:16.622Z,94211.00
2023-05-10T15:53:16.637Z,94212.00
2023-05-10T15:54:16.682Z,94212.00
2023-05-10T15:55:16.987Z,94214.00
2023-05-10T15:56:16.818Z,94214.00
2023-05-10T15:57:16.873Z,94218.00
2023-05-10T15:58:16.909Z,94214.00
2023-05-10T15:59:16.974Z,94216.00
2023-05-10T16:00:17.026Z,94218.00
2023-05-10T16:01:17.082Z,94220.00
2023-05-10T16:02:17.193Z,94218.00
2023-05-10T16:03:17.145Z,94222.00
2023-05-10T16:04:17.214Z,94224.00
2023-05-10T16:05:17.401Z,94222.00
2023-05-10T16:06:17.303Z,94222.00
2023-05-10T16:07:17.376Z,94222.00
2023-05-10T16:08:17.418Z,94220.00
2023-05-10T16:09:17.438Z,94222.00
2023-05-10T16:10:17.494Z,94224.00
2023-05-10T16:11:17.564Z,94224.00
2023-05-10T16:12:18.120Z,94224.00
2023-05-10T16:13:17.680Z,94226.00
2023-05-10T16:14:17.751Z,94230.00
2023-05-10T16:15:17.970Z,94230.00
2023-05-10T16:16:17.881Z,94232.00
2023-05-10T16:17:17.953Z,94236.00
2023-05-10T16:18:18.134Z,94234.00
2023-05-10T16:19:18.112Z,94234.00
2023-05-10T16:20:18.080Z,94238.00
2023-05-10T16:21:18.093Z,94236.00
2023-05-10T16:22:18.148Z,94236.00
2023-05-10T16:23:18.197Z,94238.00
2023-05-10T16:24:18.261Z,94240.00
2023-05-10T16:25:18.525Z,94240.00
2023-05-10T16:26:18.344Z,94238.00
2023-05-10T16:27:18.361Z,94240.00
2023-05-10T16:28:18.358Z,94242.00
2023-05-10T16:29:18.374Z,94244.00
2023-05-10T16:30:18.422Z,94250.00
2023-05-10T16:31:18.450Z,94242.00
2023-05-10T16:32:18.441Z,94246.00
2023-05-10T16:33:18.503Z,94244.00
2023-05-10T16:34:18.588Z,94242.00
2023-05-10T16:35:18.800Z,94246.00
2023-05-10T16:36:18.619Z,94248.00
2023-05-10T16:37:18.645Z,94250.00
2023-05-10T16:38:18.722Z,94250.00
2023-05-10T16:39:18.720Z,94252.00
2023-05-10T16:40:18.730Z,94248.00
2023-05-10T16:41:18.728Z,94250.00
2023-05-10T16:42:18.746Z,94252.00
2023-05-10T16:43:18.696Z,94252.00
2023-05-10T16:44:20.578Z,94254.00
2023-05-10T16:45:18.911Z,94256.00
2023-05-10T16:46:18.828Z,94256.00
2023-05-10T16:47:18.905Z,94259.00
2023-05-10T16:48:19.041Z,94258.00
2023-05-10T16:49:18.989Z,94258.00
2023-05-10T16:50:19.053Z,94261.00
2023-05-10T16:51:19.066Z,94261.00
2023-05-10T16:52:19.040Z,94261.00
2023-05-10T16:53:19.014Z,94265.00
2023-05-10T16:54:19.023Z,94261.00
2023-05-10T16:55:19.408Z,94269.00
2023-05-10T16:56:19.219Z,94263.00
2023-05-10T16:57:19.287Z,94265.00
2023-05-10T16:58:19.303Z,94263.00
2023-05-10T16:59:19.271Z,94263.00
2023-05-10T17:00:19.286Z,94265.00
2023-05-10T17:01:19.295Z,94263.00
2023-05-10T17:02:19.288Z,94265.00
2023-05-10T17:03:19.532Z,94265.00
2023-05-10T17:04:19.457Z,94269.00
2023-05-10T17:05:19.669Z,94271.00
2023-05-10T17:06:19.651Z,94271.00
2023-05-10T17:07:19.775Z,94269.00
2023-05-10T17:08:19.773Z,94269.00
2023-05-10T17:09:19.748Z,94273.00
2023-05-10T17:10:19.733Z,94275.00
2023-05-10T17:11:19.757Z,94273.00
2023-05-10T17:12:19.774Z,94273.00
2023-05-10T17:13:19.744Z,94275.00
2023-05-10T17:14:19.742Z,94277.00
2023-05-10T17:15:20.007Z,94279.00
2023-05-10T17:16:19.952Z,94281.00
2023-05-10T17:17:19.895Z,94279.00
2023-05-10T17:18:19.913Z,94277.00
2023-05-10T17:19:19.913Z,94283.00
2023-05-10T17:20:19.919Z,94281.00
2023-05-10T17:21:19.897Z,94287.00
2023-05-10T17:22:19.923Z,94287.00
2023-05-10T17:23:19.978Z,94289.00
2023-05-10T17:24:19.977Z,94291.00
2023-05-10T17:25:20.672Z,94291.00
2023-05-10T17:26:19.975Z,94293.00
2023-05-10T17:27:19.984Z,94293.00
2023-05-10T17:28:20.017Z,94295.00
2023-05-10T17:29:20.032Z,94295.00
2023-05-10T17:30:20.014Z,94297.00
2023-05-10T17:31:20.111Z,94295.00
2023-05-10T17:32:20.167Z,94299.00
2023-05-10T17:33:20.362Z,94299.00
2023-05-10T17:34:20.369Z,94301.00
2023-05-10T17:35:20.490Z,94301.00
2023-05-10T17:36:20.574Z,94299.00
2023-05-10T17:37:20.662Z,94301.00
2023-05-10T17:38:20.624Z,94303.00
2023-05-10T17:39:20.619Z,94303.00
2023-05-10T17:40:20.606Z,94301.00
2023-05-10T17:41:20.642Z,94305.00
2023-05-10T17:42:20.653Z,94305.00
2023-05-10T17:43:20.674Z,94306.00
2023-05-10T17:44:20.686Z,94306.00
2023-05-10T17:45:20.689Z,94305.00
2023-05-10T17:46:20.893Z,94306.00
2023-05-10T17:47:20.743Z,94306.00
2023-05-10T17:48:20.741Z,94310.00
2023-05-10T17:49:20.761Z,94310.00
2023-05-10T17:50:20.794Z,94312.00
2023-05-10T17:51:20.787Z,94312.00
2023-05-10T17:52:20.879Z,94314.00
2023-05-10T17:53:20.902Z,94310.00
2023-05-10T17:54:20.903Z,94316.00
2023-05-10T17:55:20.933Z,94314.00
2023-05-10T17:56:20.928Z,94318.00
2023-05-10T17:57:20.932Z,94316.00
2023-05-10T17:58:21.059Z,94318.00
2023-05-10T17:59:21.053Z,94320.00
2023-05-10T18:00:21.073Z,94318.00
2023-05-10T18:01:21.113Z,94318.00
2023-05-10T18:02:21.172Z,94318.00
2023-05-10T18:03:21.110Z,94316.00
2023-05-10T18:04:21.207Z,94320.00
2023-05-10T18:05:21.488Z,94318.00
2023-05-10T18:06:21.204Z,94316.00
2023-05-10T18:07:21.220Z,94322.00
2023-05-10T18:08:21.229Z,94320.00
2023-05-10T18:09:21.245Z,94324.00
2023-05-10T18:10:21.250Z,94326.00
2023-05-10T18:11:21.338Z,94330.00
2023-05-10T18:12:21.321Z,94330.00
2023-05-10T18:13:21.350Z,94330.00
2023-05-10T18:14:35.963Z,94332.00
2023-05-10T18:15:22.368Z,94336.00
2023-05-10T18:16:21.387Z,94334.00
2023-05-10T18:17:21.332Z,94332.00
2023-05-10T18:18:21.343Z,94334.00
2023-05-10T18:19:21.313Z,94338.00
2023-05-10T18:20:21.302Z,94340.00
2023-05-10T18:21:21.321Z,94342.00
2023-05-10T18:22:21.309Z,94346.00
2023-05-10T18:23:21.518Z,94340.00
2023-05-10T18:24:30.442Z,94338.00
2023-05-10T18:25:22.272Z,94342.00
2023-05-10T18:26:21.251Z,94342.00
2023-05-10T18:27:21.292Z,94346.00
2023-05-10T18:28:21.282Z,94348.00
2023-05-10T18:29:21.290Z,94348.00
2023-05-10T18:30:21.231Z,94348.00
2023-05-10T18:31:21.261Z,94348.00
2023-05-10T18:32:21.218Z,94348.00
2023-05-10T18:33:21.214Z,94353.00
2023-05-10T18:34:21.215Z,94350.00
2023-05-10T18:35:21.486Z,94352.00
2023-05-10T18:36:21.173Z,94352.00
2023-05-10T18:37:21.186Z,94352.00
2023-05-10T18:38:21.188Z,94353.00
2023-05-10T18:39:21.175Z,94355.00
2023-05-10T18:40:21.194Z,94353.00